createdAt,value
2022-12-01T00:03:44.267Z,101947.40
2022-12-01T00:09:09.600Z,101943.40
2022-12-01T00:14:12.903Z,101942.60
2022-12-01T00:19:16.242Z,101941.60
2022-12-01T00:24:19.423Z,101943.00
2022-12-01T00:29:22.548Z,101952.40
2022-12-01T00:34:26.564Z,101947.40
2022-12-01T00:39:29.773Z,101958.60
2022-12-01T00:44:32.872Z,101951.20
2022-12-01T00:49:35.978Z,101951.80
2022-12-01T00:54:39.800Z,101946.20
2022-12-01T00:59:43.013Z,101947.80
2022-12-01T01:04:46.225Z,101944.20
2022-12-01T01:09:49.644Z,101942.80
2022-12-01T01:14:52.984Z,101940.60
2022-12-01T01:19:56.364Z,101936.00
2022-12-01T01:24:59.496Z,101935.00
2022-12-01T01:30:02.668Z,101938.60
2022-12-01T01:35:06.708Z,101932.80
2022-12-01T01:40:11.045Z,101926.40
2022-12-01T01:45:23.592Z,101925.00
2022-12-01T01:50:29.125Z,101926.20
2022-12-01T01:55:35.410Z,101928.60
2022-12-01T02:00:42.375Z,101920.00
2022-12-01T02:05:46.634Z,101923.00
2022-12-01T02:11:15.347Z,101918.80
2022-12-01T02:17:41.829Z,101921.60
2022-12-01T02:23:07.148Z,101917.40
2022-12-01T02:29:07.686Z,101918.20
2022-12-01T02:34:21.972Z,101925.60
2022-12-01T02:40:03.763Z,101926.40
2022-12-01T02:45:17.741Z,101931.60
2022-12-01T02:50:24.332Z,101929.40
2022-12-01T02:55:27.516Z,101930.20
2022-12-01T03:00:31.475Z,101928.80
2022-12-01T03:06:06.301Z,101932.60
2022-12-01T03:11:27.266Z,101927.00
2022-12-01T03:16:52.440Z,101927.80
2022-12-01T03:22:10.796Z,101922.60
2022-12-01T03:27:21.919Z,101922.20
2022-12-01T03:32:37.090Z,101919.80
2022-12-01T03:37:47.262Z,101923.60
2022-12-01T03:42:59.690Z,101924.60
2022-12-01T03:48:03.448Z,101925.60
2022-12-01T03:53:07.032Z,101931.80
2022-12-01T03:58:30.909Z,101935.60
2022-12-01T04:03:34.947Z,101934.20
2022-12-01T04:08:39.181Z,101937.60
2022-12-01T04:13:42.283Z,101934.60
2022-12-01T04:18:45.503Z,101930.40
2022-12-01T04:24:00.887Z,101926.80
2022-12-01T04:29:09.551Z,101921.20
2022-12-01T04:34:12.626Z,101920.20
2022-12-01T04:39:15.880Z,101911.20
2022-12-01T04:44:19.261Z,101918.60
2022-12-01T04:49:22.806Z,101914.80
2022-12-01T04:54:26.192Z,101918.20
2022-12-01T04:59:29.294Z,101918.40
2022-12-01T05:04:34.261Z,101921.80
2022-12-01T05:09:37.649Z,101921.00
2022-12-01T05:14:40.662Z,101926.20
2022-12-01T05:20:02.418Z,101923.00
2022-12-01T05:25:08.480Z,101920.20
2022-12-01T05:30:12.707Z,101925.60
2022-12-01T05:35:16.014Z,101928.00
2022-12-01T05:40:19.343Z,101929.80
2022-12-01T05:45:22.956Z,101925.00
2022-12-01T05:50:29.489Z,101932.40
2022-12-01T05:55:35.814Z,101935.40
2022-12-01T06:00:45.423Z,101939.00
2022-12-01T06:05:49.190Z,101943.60
2022-12-01T06:10:52.300Z,101938.40
2022-12-01T06:16:05.535Z,101940.40
2022-12-01T06:21:08.647Z,101938.00
2022-12-01T06:26:11.753Z,101939.40
2022-12-01T06:31:14.770Z,101942.80
2022-12-01T06:36:17.971Z,101939.60
2022-12-01T06:41:21.078Z,101942.40
2022-12-01T06:46:24.476Z,101946.40
2022-12-01T06:51:28.615Z,101951.20
2022-12-01T06:56:31.727Z,101947.40
2022-12-01T07:01:35.237Z,101943.60
2022-12-01T07:06:38.552Z,101941.00
2022-12-01T07:11:41.661Z,101947.20
2022-12-01T07:16:44.917Z,101948.00
2022-12-01T07:21:48.087Z,101947.00
2022-12-01T07:26:51.287Z,101948.80
2022-12-01T07:31:54.388Z,101952.20
2022-12-01T07:36:57.494Z,101959.20
2022-12-01T07:42:00.599Z,101960.00
2022-12-01T07:47:04.225Z,101954.00
2022-12-01T07:52:07.437Z,101962.80
2022-12-01T07:57:14.457Z,101949.00
2022-12-01T08:02:17.702Z,101955.00
2022-12-01T08:07:21.086Z,101947.00
2022-12-01T08:12:24.458Z,101949.20
2022-12-01T08:17:27.568Z,101947.80
2022-12-01T08:22:30.815Z,101953.40
2022-12-01T08:27:35.468Z,101953.60
2022-12-01T08:32:38.572Z,101952.40
2022-12-01T08:37:41.946Z,101945.60
2022-12-01T08:42:47.139Z,101953.40
2022-12-01T08:47:50.605Z,101951.40
2022-12-01T08:52:53.917Z,101949.40
2022-12-01T08:57:57.024Z,101958.60
2022-12-01T09:03:01.304Z,101956.20
2022-12-01T09:08:23.920Z,101956.60
2022-12-01T09:13:28.788Z,101957.00
2022-12-01T09:18:32.600Z,101957.80
2022-12-01T09:23:35.809Z,101953.20
2022-12-01T09:28:39.110Z,101947.20
2022-12-01T09:33:43.037Z,101946.40
2022-12-01T09:38:46.345Z,101942.00
2022-12-01T09:43:56.939Z,101937.40
2022-12-01T09:49:04.190Z,101935.00
2022-12-01T09:54:11.109Z,101931.20
2022-12-01T09:59:22.686Z,101929.40
2022-12-01T10:04:36.686Z,101925.40
2022-12-01T10:09:54.748Z,101926.60
2022-12-01T10:15:13.425Z,101923.20
2022-12-01T10:20:16.528Z,101925.60
2022-12-01T10:25:51.684Z,101920.80
2022-12-01T10:31:05.078Z,101921.40
2022-12-01T10:36:10.706Z,101913.40
2022-12-01T10:41:18.658Z,101905.40
2022-12-01T10:47:06.577Z,101906.20
2022-12-01T10:52:41.939Z,101901.20
2022-12-01T10:57:46.236Z,101907.20
2022-12-01T11:02:49.818Z,101901.00
2022-12-01T11:07:54.048Z,101903.80
2022-12-01T11:13:21.036Z,101899.80
2022-12-01T11:18:50.453Z,101902.80
2022-12-01T11:23:56.287Z,101898.20
2022-12-01T11:29:22.237Z,101904.60
2022-12-01T11:34:34.616Z,101895.60
2022-12-01T11:39:44.130Z,101889.80
2022-12-01T11:45:13.635Z,101882.80
2022-12-01T11:50:28.576Z,101887.60
2022-12-01T11:55:32.856Z,101887.40
2022-12-01T12:00:58.209Z,101877.00
2022-12-01T12:06:39.589Z,101873.20
2022-12-01T12:12:01.933Z,101872.40
2022-12-01T12:18:02.204Z,101863.20
2022-12-01T12:23:20.949Z,101874.60
2022-12-01T12:28:23.993Z,101871.80
2022-12-01T12:33:33.717Z,101859.00
2022-12-01T12:38:55.460Z,101858.40
2022-12-01T12:44:37.616Z,101859.80
2022-12-01T12:49:57.339Z,101852.80
2022-12-01T12:55:20.561Z,101852.60
2022-12-01T13:00:29.925Z,101846.00
2022-12-01T13:05:40.609Z,101841.60
2022-12-01T13:11:03.357Z,101842.20
2022-12-01T13:16:15.876Z,101843.00
2022-12-01T13:21:23.663Z,101833.60
2022-12-01T13:26:27.327Z,101828.60
2022-12-01T13:31:51.016Z,101834.80
2022-12-01T13:36:56.737Z,101832.60
2022-12-01T13:42:25.939Z,101831.00
2022-12-01T13:47:50.604Z,101836.80
2022-12-01T13:53:31.216Z,101843.20
2022-12-01T13:58:34.305Z,101842.80
2022-12-01T14:03:41.460Z,101842.40
2022-12-01T14:09:03.175Z,101839.60
2022-12-01T14:14:09.214Z,101838.00
2022-12-01T14:19:47.419Z,101836.00
2022-12-01T14:24:53.425Z,101826.60
2022-12-01T14:29:56.629Z,101822.00
2022-12-01T14:35:05.320Z,101824.40
2022-12-01T14:40:25.165Z,101827.20
2022-12-01T14:45:55.507Z,101821.20
2022-12-01T14:51:33.238Z,101821.00
2022-12-01T14:56:37.876Z,101813.40
2022-12-01T15:01:41.655Z,101816.40
2022-12-01T15:06:46.189Z,101818.40
2022-12-01T15:12:02.467Z,101817.20
2022-12-01T15:17:09.290Z,101818.80
2022-12-01T15:22:16.889Z,101812.80
2022-12-01T15:27:31.121Z,101810.60
2022-12-01T15:32:43.254Z,101804.00
2022-12-01T15:37:47.364Z,101806.60
2022-12-01T15:43:38.229Z,101814.40
2022-12-01T15:48:42.417Z,101813.00
2022-12-01T15:53:51.415Z,101810.80
2022-12-01T15:59:20.687Z,101812.00
2022-12-01T16:04:35.563Z,101806.20
2022-12-01T16:09:58.729Z,101798.80
2022-12-01T16:15:03.188Z,101810.00
2022-12-01T16:20:23.288Z,101806.20
2022-12-01T16:25:39.133Z,101806.80
2022-12-01T16:30:42.377Z,101808.60
2022-12-01T16:35:46.435Z,101810.40
2022-12-01T16:40:57.212Z,101814.40
2022-12-01T16:46:06.721Z,101807.00
2022-12-01T16:51:14.605Z,101817.00
2022-12-01T16:56:17.796Z,101816.20
2022-12-01T17:01:21.065Z,101818.80
2022-12-01T17:06:24.423Z,101808.80
2022-12-01T17:11:27.634Z,101818.80
2022-12-01T17:16:30.887Z,101830.20
2022-12-01T17:21:34.150Z,101830.00
2022-12-01T17:26:37.352Z,101828.00
2022-12-01T17:31:40.618Z,101824.80
2022-12-01T17:36:44.206Z,101816.80
2022-12-01T17:41:47.391Z,101807.40
2022-12-01T17:46:50.649Z,101811.20
2022-12-01T17:51:53.974Z,101813.00
2022-12-01T17:56:57.533Z,101808.00
2022-12-01T18:02:00.900Z,101809.40
2022-12-01T18:07:04.459Z,101808.20
2022-12-01T18:12:07.922Z,101811.00
2022-12-01T18:17:11.502Z,101806.80
2022-12-01T18:22:14.801Z,101802.60
2022-12-01T18:27:17.919Z,101802.00
2022-12-01T18:32:21.321Z,101805.40
2022-12-01T18:37:24.647Z,101809.80
2022-12-01T18:42:27.775Z,101809.20
2022-12-01T18:47:30.977Z,101807.60
2022-12-01T18:52:37.779Z,101815.00
2022-12-01T18:57:40.969Z,101806.40
2022-12-01T19:02:44.128Z,101808.60
2022-12-01T19:07:48.884Z,101812.00
2022-12-01T19:12:52.215Z,101806.20
2022-12-01T19:17:55.733Z,101806.60
2022-12-01T19:22:59.798Z,101813.60
2022-12-01T19:28:03.576Z,101819.00
2022-12-01T19:33:06.787Z,101822.00
2022-12-01T19:38:09.995Z,101822.60
2022-12-01T19:43:13.305Z,101815.60
2022-12-01T19:48:16.522Z,101816.60
2022-12-01T19:53:19.724Z,101810.20
2022-12-01T19:58:25.181Z,101814.80
2022-12-01T20:03:28.396Z,101814.20
2022-12-01T20:08:35.485Z,101815.40
2022-12-01T20:13:42.334Z,101818.60
2022-12-01T20:18:46.833Z,101822.60
2022-12-01T20:23:59.979Z,101810.40
2022-12-01T20:29:15.161Z,101807.80
2022-12-01T20:34:27.151Z,101809.00
2022-12-01T20:39:35.608Z,101807.40
2022-12-01T20:44:40.387Z,101812.00
2022-12-01T20:49:43.861Z,101814.80
2022-12-01T20:54:47.113Z,101817.00
2022-12-01T20:59:50.482Z,101814.00
2022-12-01T21:04:57.754Z,101813.20
2022-12-01T21:10:03.360Z,101817.80
2022-12-01T21:15:29.605Z,101819.20
2022-12-01T21:20:40.764Z,101829.40
2022-12-01T21:25:44.926Z,101830.80
2022-12-01T21:30:49.735Z,101830.20
2022-12-01T21:35:53.090Z,101827.20
2022-12-01T21:40:56.214Z,101824.60
2022-12-01T21:46:14.015Z,101826.00
2022-12-01T21:51:25.106Z,101829.80
2022-12-01T21:56:31.953Z,101826.40
2022-12-01T22:01:35.780Z,101831.60
2022-12-01T22:06:44.536Z,101826.20
2022-12-01T22:12:10.254Z,101824.40
2022-12-01T22:17:20.605Z,101821.20
2022-12-01T22:22:27.578Z,101821.00
2022-12-01T22:27:38.718Z,101814.80
2022-12-01T22:32:48.267Z,101817.20
2022-12-01T22:38:06.722Z,101816.00
2022-12-01T22:43:15.773Z,101817.60
2022-12-01T22:48:29.081Z,101811.40
2022-12-01T22:53:32.248Z,101807.60
2022-12-01T22:58:41.244Z,101806.00
2022-12-01T23:03:44.367Z,101797.80
2022-12-01T23:08:47.578Z,101798.80
2022-12-01T23:13:50.789Z,101792.80
2022-12-01T23:18:55.435Z,101788.40
2022-12-01T23:23:58.543Z,101792.80
2022-12-01T23:29:01.841Z,101797.20
2022-12-01T23:34:15.532Z,101792.20
2022-12-01T23:39:29.182Z,101793.20
2022-12-01T23:44:45.783Z,101790.80
2022-12-01T23:50:07.017Z,101787.60
2022-12-01T23:55:29.978Z,101784.00
